Historique des mesures à Cassis (13260), France
Quotidien Résumé Juin 16, 2021 Unités:  Métrique/US    US   Métrique
Quotidien Hebdomadaire Mensuel Annuel
  Maximum: Minimum: Moyenne:
Température: 69.6 °F /  20.9 °C 55.9 °F /  13.3 °C 61.3 °F /  16.3 °C
Point de rosée: 56.7 °F /  13.7 °C 48.6 °F /  9.2 °C 52.5 °F /  11.4 °C
Humidité: 81% 62% 73%
Vitesse du vent: 7mph /  11.2km/h - 2.5mph /  4.1km/h
Rafales: 10.7mph /  17.3km/h - -
Vent- - WNW
Pression: 30 in /  1016.1 hPa 29.9 in /  1012.3 hPa -
Précipitations: 0 in /  0.0 mm    
Historical Graphs
 
 
Mesures pour : Juin 16, 2021
Heure Temperature Point de rosée Pression Vent Vitesse du vent Rafales Humidité Pluie (par heure)
00:11 57.9 °F /  14.4 °C 49.6 °F /  9.8 °C 29.9in /  1012.4hPa NNW 6.5mph /  10.4km/h 7.6mph /  12.2km/h 74% 0in /  0.0mm
01:11 56.5 °F /  13.6 °C 48.9 °F /  9.4 °C 29.9in /  1012.3hPa NNW 5.8mph /  9.4km/h 6.5mph /  10.4km/h 76% 0in /  0.0mm
02:11 57 °F /  13.9 °C 49.1 °F /  9.5 °C 29.9in /  1012.3hPa NW 7mph /  11.2km/h 7mph /  11.2km/h 75% 0in /  0.0mm
03:11 56.8 °F /  13.8 °C 48.6 °F /  9.2 °C 29.9in /  1012.6hPa NW 4.7mph /  7.6km/h 10.7mph /  17.3km/h 74% 0in /  0.0mm
04:11 56.5 °F /  13.6 °C 48.9 °F /  9.4 °C 29.9in /  1012.6hPa NNW 1.6mph /  2.5km/h 5.6mph /  9km/h 76% 0in /  0.0mm
05:11 56.5 °F /  13.6 °C 49.3 °F /  9.6 °C 29.9in /  1012.6hPa WNW 4.7mph /  7.6km/h 8.5mph /  13.7km/h 77% 0in /  0.0mm
06:11 56.7 °F /  13.7 °C 49.8 °F /  9.9 °C 29.9in /  1012.8hPa Calm   5.2mph /  8.3km/h 78% 0in /  0.0mm
07:11 55.9 °F /  13.3 °C 49.5 °F /  9.7 °C 29.9in /  1013.1hPa NW 2.5mph /  4km/h 6.3mph /  10.1km/h 79% 0in /  0.0mm
08:11 56.3 °F /  13.5 °C 49.8 °F /  9.9 °C 29.9in /  1013.5hPa NNW 1.4mph /  2.2km/h 3.6mph /  5.8km/h 79% 0in /  0.0mm
09:11 57.9 °F /  14.4 °C 51.1 °F /  10.6 °C 30in /  1014.4hPa NNW 5.8mph /  9.4km/h 8.9mph /  14.4km/h 78% 0in /  0.0mm
10:11 60.4 °F /  15.8 °C 52.5 °F /  11.4 °C 30in /  1014.7hPa WNW 2mph /  3.2km/h 5.2mph /  8.3km/h 75% 0in /  0.0mm
11:11 63.3 °F /  17.4 °C 54.1 °F /  12.3 °C 30in /  1015.0hPa Calm   1.4mph /  2.2km/h 72% 0in /  0.0mm
12:11 65.1 °F /  18.4 °C 55.2 °F /  12.9 °C 30in /  1015.2hPa Calm   3.4mph /  5.4km/h 70% 0in /  0.0mm
13:12 67.6 °F /  19.8 °C 56.7 °F /  13.7 °C 30in /  1015.0hPa South 2.2mph /  3.6km/h 7.6mph /  12.2km/h 68% 0in /  0.0mm
14:11 68.5 °F /  20.3 °C 56.3 °F /  13.5 °C 30in /  1014.7hPa SSE 2mph /  3.2km/h 6.5mph /  10.4km/h 65% 0in /  0.0mm
15:11 69.4 °F /  20.8 °C 56.7 °F /  13.7 °C 30in /  1014.5hPa ESE 1.1mph /  1.8km/h 6mph /  9.7km/h 64% 0in /  0.0mm
16:11 69.6 °F /  20.9 °C 56.1 °F /  13.4 °C 30in /  1014.4hPa Calm   3.8mph /  6.1km/h 62% 0in /  0.0mm
17:11 68.7 °F /  20.4 °C 55.6 °F /  13.1 °C 30in /  1014.5hPa South 1.6mph /  2.5km/h 4.2mph /  6.8km/h 63% 0in /  0.0mm
18:11 67.5 °F /  19.7 °C 55.2 °F /  12.9 °C 30in /  1014.5hPa Calm     65% 0in /  0.0mm
19:11 64.6 °F /  18.1 °C 54.7 °F /  12.6 °C 30in /  1015.0hPa Calm     70% 0in /  0.0mm
20:11 61.5 °F /  16.4 °C 53.6 °F /  12 °C 30in /  1015.5hPa NW 2.9mph /  4.7km/h 3.6mph /  5.8km/h 75% 0in /  0.0mm
21:11 59.9 °F /  15.5 °C 53.1 °F /  11.7 °C 30in /  1015.6hPa WNW 3.1mph /  5km/h 9.4mph /  15.1km/h 78% 0in /  0.0mm
22:11 59 °F /  15 °C 52.5 °F /  11.4 °C 30in /  1015.9hPa NW 1.6mph /  2.5km/h 3.6mph /  5.8km/h 79% 0in /  0.0mm
23:11 58.3 °F /  14.6 °C 52.5 °F /  11.4 °C 30in /  1016.1hPa WNW 4.2mph /  6.8km/h 7mph /  11.2km/h 81% 0in /  0.0mm
Observations météo à CASSIS
WU-History script by Weather Underground - 2 mb